createdAt,value
2018-04-17T00:00:16.387Z,98536.36
2018-04-17T00:01:19.295Z,98537.82
2018-04-17T00:02:22.488Z,98535.86
2018-04-17T00:03:25.406Z,98535.09
2018-04-17T00:04:28.307Z,98543.72
2018-04-17T00:05:31.218Z,98538.63
2018-04-17T00:06:34.079Z,98539.43
2018-04-17T00:07:37.007Z,98543.69
2018-04-17T00:08:40.109Z,98537.58
2018-04-17T00:09:42.909Z,98540.16
2018-04-17T00:10:45.738Z,98542.73
2018-04-17T00:11:48.535Z,98535.61
2018-04-17T00:12:51.339Z,98537.77
2018-04-17T00:13:54.141Z,98548.16
2018-04-17T00:14:57.315Z,98548.08
2018-04-17T00:16:00.150Z,98542.75
2018-04-17T00:17:02.964Z,98549.17
2018-04-17T00:18:05.783Z,98552.18
2018-04-17T00:19:08.629Z,98546.98
2018-04-17T00:20:11.848Z,98547.72
2018-04-17T00:21:15.251Z,98557.77
2018-04-17T00:22:18.179Z,98552.05
2018-04-17T00:23:21.180Z,98553.02
2018-04-17T00:24:24.148Z,98552.53
2018-04-17T00:25:27.101Z,98553.03
2018-04-17T00:26:30.084Z,98552.68
2018-04-17T00:27:33.243Z,98556.08
2018-04-17T00:28:36.380Z,98559.81
2018-04-17T00:29:39.188Z,98556.34
2018-04-17T00:30:42.016Z,98561.84
2018-04-17T00:31:44.826Z,98556.08
2018-04-17T00:32:47.653Z,98567.03
2018-04-17T00:33:50.786Z,98560.89
2018-04-17T00:34:53.581Z,98566.16
2018-04-17T00:35:56.390Z,98558.02
2018-04-17T00:36:59.184Z,98562.87
2018-04-17T00:38:01.896Z,98558.23
2018-04-17T00:39:04.828Z,98559.24
2018-04-17T00:40:07.811Z,98563.61
2018-04-17T00:41:10.530Z,98577.10
2018-04-17T00:42:13.230Z,98568.37
2018-04-17T00:43:15.950Z,98570.59
2018-04-17T00:44:18.757Z,98570.39
2018-04-17T00:45:21.574Z,98577.45
2018-04-17T00:46:24.792Z,98571.59
2018-04-17T00:47:27.617Z,98578.16
2018-04-17T00:48:30.443Z,98575.72
2018-04-17T00:49:33.256Z,98571.70
2018-04-17T00:50:36.069Z,98569.87
2018-04-17T00:51:38.856Z,98572.78
2018-04-17T00:52:41.953Z,98571.62
2018-04-17T00:53:44.812Z,98573.88
2018-04-17T00:54:47.590Z,98571.55
2018-04-17T00:55:50.365Z,98577.30
2018-04-17T00:56:53.111Z,98571.92
2018-04-17T00:57:55.873Z,98572.00
2018-04-17T00:58:58.973Z,98568.86
2018-04-17T01:00:01.717Z,98571.59
2018-04-17T01:01:04.478Z,98577.87
2018-04-17T01:02:07.225Z,98576.63
2018-04-17T01:03:10.040Z,98574.11
2018-04-17T01:04:12.988Z,98572.86
2018-04-17T01:05:16.262Z,98578.34
2018-04-17T01:06:19.039Z,98582.88
2018-04-17T01:07:21.802Z,98582.39
2018-04-17T01:08:24.611Z,98580.74
2018-04-17T01:09:27.395Z,98577.81
2018-04-17T01:10:30.198Z,98586.07
2018-04-17T01:11:33.320Z,98583.80
2018-04-17T01:12:36.138Z,98584.48
2018-04-17T01:13:38.938Z,98581.61
2018-04-17T01:14:41.726Z,98587.25
2018-04-17T01:15:44.471Z,98580.50
2018-04-17T01:16:47.253Z,98582.32
2018-04-17T01:17:50.246Z,98581.52
2018-04-17T01:18:52.968Z,98573.31
2018-04-17T01:19:55.754Z,98582.85
2018-04-17T01:20:58.471Z,98575.52
2018-04-17T01:22:01.185Z,98584.36
2018-04-17T01:23:03.916Z,98588.51
2018-04-17T01:24:06.944Z,98579.23
2018-04-17T01:25:09.777Z,98587.72
2018-04-17T01:26:12.563Z,98583.66
2018-04-17T01:27:15.375Z,98581.33
2018-04-17T01:28:18.175Z,98577.90
2018-04-17T01:29:20.996Z,98586.47
2018-04-17T01:30:24.070Z,98581.80
2018-04-17T01:31:26.849Z,98581.03
2018-04-17T01:32:29.660Z,98588.03
2018-04-17T01:33:32.476Z,98587.63
2018-04-17T01:34:35.291Z,98589.59
2018-04-17T01:35:38.102Z,98592.53
2018-04-17T01:36:41.240Z,98594.33
2018-04-17T01:37:44.102Z,98593.20
2018-04-17T01:38:46.917Z,98600.56
2018-04-17T01:39:49.737Z,98602.55
2018-04-17T01:40:52.537Z,98594.96
2018-04-17T01:41:55.342Z,98600.56
2018-04-17T01:42:58.491Z,98602.11
2018-04-17T01:44:01.391Z,98602.31
2018-04-17T01:45:04.185Z,98602.52
2018-04-17T01:46:07.021Z,98604.70
2018-04-17T01:47:09.805Z,98607.22
2018-04-17T01:48:12.616Z,98607.83
2018-04-17T01:49:15.773Z,98614.69
2018-04-17T01:50:18.565Z,98611.92
2018-04-17T01:51:21.375Z,98615.42
2018-04-17T01:52:24.178Z,98613.08
2018-04-17T01:53:27.070Z,98611.86
2018-04-17T01:54:29.863Z,98608.36
2018-04-17T01:55:32.958Z,98614.97
2018-04-17T01:56:35.863Z,98618.09
2018-04-17T01:57:38.734Z,98606.78
2018-04-17T01:58:41.624Z,98613.47
2018-04-17T01:59:44.510Z,98612.89
2018-04-17T02:00:47.394Z,98613.69
2018-04-17T02:01:50.572Z,98612.92
2018-04-17T02:02:53.906Z,98612.73
2018-04-17T02:03:56.743Z,98607.67
2018-04-17T02:04:59.659Z,98616.67
2018-04-17T02:06:02.405Z,98607.15
2018-04-17T02:07:05.168Z,98610.27
2018-04-17T02:08:08.293Z,98614.37
2018-04-17T02:09:11.775Z,98608.53
2018-04-17T02:10:14.661Z,98610.47
2018-04-17T02:11:17.506Z,98602.31
2018-04-17T02:12:20.334Z,98608.19
2018-04-17T02:13:23.473Z,98605.68
2018-04-17T02:14:26.367Z,98606.27
2018-04-17T02:15:29.835Z,98612.71
2018-04-17T02:16:32.776Z,98618.01
2018-04-17T02:17:35.685Z,98621.70
2018-04-17T02:18:38.544Z,98615.86
2018-04-17T02:19:41.736Z,98619.77
2018-04-17T02:20:44.542Z,98617.88
2018-04-17T02:21:47.662Z,98627.22
2018-04-17T02:22:50.516Z,98622.39
2018-04-17T02:23:53.433Z,98629.36
2018-04-17T02:24:56.284Z,98627.62
2018-04-17T02:25:59.435Z,98623.52
2018-04-17T02:27:02.302Z,98622.34
2018-04-17T02:28:05.180Z,98620.73
2018-04-17T02:29:08.102Z,98625.02
2018-04-17T02:30:10.994Z,98624.42
2018-04-17T02:31:13.856Z,98625.95
2018-04-17T02:32:17.180Z,98623.81
2018-04-17T02:33:19.989Z,98626.38
2018-04-17T02:34:22.786Z,98622.25
2018-04-17T02:35:25.653Z,98627.30
2018-04-17T02:36:28.570Z,98624.38
2018-04-17T02:37:31.433Z,98623.20
2018-04-17T02:38:34.596Z,98630.55
2018-04-17T02:39:37.482Z,98629.61
2018-04-17T02:40:40.381Z,98628.25
2018-04-17T02:41:43.245Z,98630.20
2018-04-17T02:42:46.102Z,98632.75
2018-04-17T02:43:48.959Z,98631.00
2018-04-17T02:44:52.204Z,98634.52
2018-04-17T02:45:55.094Z,98636.09
2018-04-17T02:46:57.978Z,98633.55
2018-04-17T02:48:00.855Z,98639.03
2018-04-17T02:49:03.744Z,98635.50
2018-04-17T02:50:06.595Z,98641.52
2018-04-17T02:51:09.784Z,98640.74
2018-04-17T02:52:12.647Z,98640.16
2018-04-17T02:53:15.497Z,98641.71
2018-04-17T02:54:18.357Z,98644.63
2018-04-17T02:55:21.233Z,98641.32
2018-04-17T02:56:24.113Z,98650.27
2018-04-17T02:57:27.257Z,98649.88
2018-04-17T02:58:30.038Z,98648.71
2018-04-17T02:59:32.872Z,98654.11
2018-04-17T03:00:36.719Z,98654.92
2018-04-17T03:01:39.632Z,98650.86
2018-04-17T03:02:43.361Z,98665.09
2018-04-17T03:03:46.495Z,98661.39
2018-04-17T03:04:49.372Z,98649.88
2018-04-17T03:05:52.211Z,98660.37
2018-04-17T03:06:55.387Z,98662.07
2018-04-17T03:07:58.246Z,98661.66
2018-04-17T03:09:01.025Z,98657.96
2018-04-17T03:10:04.086Z,98663.42
2018-04-17T03:11:06.832Z,98659.72
2018-04-17T03:12:09.719Z,98662.46
2018-04-17T03:13:12.525Z,98660.34
2018-04-17T03:14:15.338Z,98661.16
2018-04-17T03:15:18.175Z,98660.01
2018-04-17T03:16:21.245Z,98674.03
2018-04-17T03:17:24.068Z,98669.98
2018-04-17T03:18:26.866Z,98670.95
2018-04-17T03:19:29.704Z,98672.50
2018-04-17T03:20:32.805Z,98669.78
2018-04-17T03:21:35.637Z,98675.82
2018-04-17T03:22:38.737Z,98675.03
2018-04-17T03:23:41.482Z,98675.08
2018-04-17T03:24:44.307Z,98673.09
2018-04-17T03:25:47.673Z,98675.23
2018-04-17T03:26:50.515Z,98677.18
2018-04-17T03:27:53.324Z,98677.75
2018-04-17T03:28:56.441Z,98674.04
2018-04-17T03:29:59.263Z,98679.10
2018-04-17T03:31:02.098Z,98680.47
2018-04-17T03:32:04.916Z,98678.73
2018-04-17T03:33:07.781Z,98682.03
2018-04-17T03:34:10.682Z,98678.92
2018-04-17T03:35:13.894Z,98677.56
2018-04-17T03:36:16.887Z,98678.52
2018-04-17T03:37:19.734Z,98677.57
2018-04-17T03:38:22.613Z,98683.46
2018-04-17T03:39:25.508Z,98680.00
2018-04-17T03:40:28.343Z,98673.96
2018-04-17T03:41:31.529Z,98682.72
2018-04-17T03:42:34.388Z,98677.28
2018-04-17T03:43:37.244Z,98682.34
2018-04-17T03:44:40.091Z,98679.42
2018-04-17T03:45:42.974Z,98678.88
2018-04-17T03:46:45.815Z,98678.88
2018-04-17T03:47:48.959Z,98671.84
2018-04-17T03:48:51.847Z,98680.20
2018-04-17T03:49:54.608Z,98672.41
2018-04-17T03:50:57.467Z,98674.35
2018-04-17T03:52:00.278Z,98677.43
2018-04-17T03:53:03.111Z,98674.16
2018-04-17T03:54:05.930Z,98674.35
2018-04-17T03:55:08.715Z,98677.67
2018-04-17T03:56:11.532Z,98674.75
2018-04-17T03:57:14.353Z,98673.97
2018-04-17T03:58:17.142Z,98678.25
2018-04-17T03:59:20.416Z,98671.05
2018-04-17T04:00:23.284Z,98684.28
2018-04-17T04:01:26.166Z,98679.62
2018-04-17T04:02:29.014Z,98674.59
2018-04-17T04:03:31.878Z,98677.87
2018-04-17T04:04:34.734Z,98675.73
2018-04-17T04:05:37.619Z,98680.20
2018-04-17T04:06:40.664Z,98677.73
2018-04-17T04:07:43.528Z,98680.27
2018-04-17T04:08:46.372Z,98675.80
2018-04-17T04:09:49.231Z,98679.48
2018-04-17T04:10:52.307Z,98680.30
2018-04-17T04:11:55.192Z,98686.70
2018-04-17T04:12:58.112Z,98682.42
2018-04-17T04:14:00.971Z,98681.48
2018-04-17T04:15:03.887Z,98681.87
2018-04-17T04:16:06.766Z,98688.67
2018-04-17T04:17:09.898Z,98686.15
2018-04-17T04:18:12.749Z,98689.25
2018-04-17T04:19:15.666Z,98689.84
2018-04-17T04:20:19.648Z,98688.69
2018-04-17T04:21:22.535Z,98693.14
2018-04-17T04:22:25.392Z,98690.43
2018-04-17T04:23:28.542Z,98692.77
2018-04-17T04:24:31.427Z,98690.61
2018-04-17T04:25:35.434Z,98692.95
2018-04-17T04:26:38.369Z,98701.89
2018-04-17T04:27:41.496Z,98695.28
2018-04-17T04:28:44.341Z,98695.46
2018-04-17T04:29:47.534Z,98697.98
2018-04-17T04:30:50.455Z,98699.17
2018-04-17T04:31:53.427Z,98698.02
2018-04-17T04:32:56.284Z,98698.99
2018-04-17T04:33:59.268Z,98700.13
2018-04-17T04:35:02.122Z,98704.63
2018-04-17T04:36:05.495Z,98703.45
2018-04-17T04:37:08.345Z,98707.34
2018-04-17T04:38:11.203Z,98710.06
2018-04-17T04:39:14.134Z,98703.64
2018-04-17T04:40:17.006Z,98713.95
2018-04-17T04:41:19.831Z,98713.94
2018-04-17T04:42:23.098Z,98710.06
2018-04-17T04:43:25.975Z,98708.30
2018-04-17T04:44:28.843Z,98712.19
2018-04-17T04:45:31.704Z,98713.77
2018-04-17T04:46:34.506Z,98713.55
2018-04-17T04:47:37.289Z,98711.05
2018-04-17T04:48:40.077Z,98719.40
2018-04-17T04:49:42.937Z,98722.69
2018-04-17T04:50:45.929Z,98718.23
2018-04-17T04:51:48.731Z,98718.61
2018-04-17T04:52:51.600Z,98719.58
2018-04-17T04:53:54.838Z,98726.75
2018-04-17T04:54:57.637Z,98722.88
2018-04-17T04:56:00.410Z,98727.34
2018-04-17T04:57:03.186Z,98724.61
2018-04-17T04:58:05.951Z,98729.09
2018-04-17T04:59:08.847Z,98729.08
2018-04-17T05:00:12.282Z,98733.36
2018-04-17T05:01:15.239Z,98728.89
2018-04-17T05:02:18.079Z,98731.23
2018-04-17T05:03:20.904Z,98739.77
2018-04-17T05:04:23.754Z,98735.70
2018-04-17T05:05:26.608Z,98732.21
2018-04-17T05:06:29.778Z,98733.55
2018-04-17T05:07:32.700Z,98739.59
2018-04-17T05:08:35.572Z,98734.15
2018-04-17T05:09:38.447Z,98729.31
2018-04-17T05:10:41.347Z,98736.09
2018-04-17T05:11:44.318Z,98731.62
2018-04-17T05:12:47.515Z,98743.28
2018-04-17T05:13:50.564Z,98743.87
2018-04-17T05:14:53.418Z,98734.95
2018-04-17T05:15:56.214Z,98740.96
2018-04-17T05:16:59.091Z,98742.72
2018-04-17T05:18:01.876Z,98745.42
2018-04-17T05:19:04.983Z,98742.13
2018-04-17T05:20:07.775Z,98750.67
2018-04-17T05:21:10.653Z,98750.69
2018-04-17T05:22:13.528Z,98753.59
2018-04-17T05:23:16.429Z,98754.54
2018-04-17T05:24:19.301Z,98764.48
2018-04-17T05:25:22.417Z,98760.98
2018-04-17T05:26:25.264Z,98761.17
2018-04-17T05:27:27.948Z,98763.52
2018-04-17T05:28:30.718Z,98772.45
2018-04-17T05:29:33.576Z,98767.41
2018-04-17T05:30:36.405Z,98775.97
2018-04-17T05:31:39.710Z,98775.96
2018-04-17T05:32:42.564Z,98774.99
2018-04-17T05:33:45.492Z,98777.11
2018-04-17T05:34:48.388Z,98775.58
2018-04-17T05:35:51.257Z,98779.26
2018-04-17T05:36:54.178Z,98781.98
2018-04-17T05:37:57.044Z,98782.20
2018-04-17T05:38:59.949Z,98783.14
2018-04-17T05:40:02.837Z,98785.88
2018-04-17T05:41:06.252Z,98790.94
2018-04-17T05:42:09.182Z,98790.75
2018-04-17T05:43:12.384Z,98790.55
2018-04-17T05:44:15.279Z,98791.90
2018-04-17T05:45:18.259Z,98795.98
2018-04-17T05:46:21.153Z,98794.44
2018-04-17T05:47:24.022Z,98791.89
2018-04-17T05:48:26.882Z,98798.32
2018-04-17T05:49:30.277Z,98795.38
2018-04-17T05:50:33.120Z,98793.23
2018-04-17T05:51:36.016Z,98794.58
2018-04-17T05:52:38.918Z,98804.51
2018-04-17T05:53:41.827Z,98802.73
2018-04-17T05:54:44.727Z,98799.22
2018-04-17T05:55:48.116Z,98806.23
2018-04-17T05:56:51.077Z,98803.30
2018-04-17T05:57:54.203Z,98809.69
2018-04-17T05:58:57.165Z,98808.66
2018-04-17T06:00:00.069Z,98809.00
2018-04-17T06:01:03.014Z,98811.66
2018-04-17T06:02:06.163Z,98812.97
2018-04-17T06:03:09.004Z,98813.05
2018-04-17T06:04:11.859Z,98806.15
2018-04-17T06:05:14.794Z,98811.44
2018-04-17T06:06:17.631Z,98806.34
2018-04-17T06:07:20.528Z,98812.00
2018-04-17T06:08:23.397Z,98817.84
2018-04-17T06:09:26.323Z,98815.53
2018-04-17T06:10:29.188Z,98815.69
2018-04-17T06:11:32.118Z,98819.59
2018-04-17T06:12:34.992Z,98823.80
2018-04-17T06:13:38.178Z,98826.59
2018-04-17T06:14:41.135Z,98830.44
2018-04-17T06:15:44.024Z,98830.70
2018-04-17T06:16:46.891Z,98835.36
2018-04-17T06:17:49.695Z,98838.11
2018-04-17T06:18:52.601Z,98844.62
2018-04-17T06:19:56.223Z,98846.00
2018-04-17T06:20:59.214Z,98852.84
2018-04-17T06:22:02.067Z,98856.84
2018-04-17T06:23:05.103Z,98859.52
2018-04-17T06:24:08.040Z,98854.62
2018-04-17T06:25:11.017Z,98867.58
2018-04-17T06:26:14.237Z,98864.17
2018-04-17T06:27:17.068Z,98869.19
2018-04-17T06:28:19.894Z,98868.08
2018-04-17T06:29:22.847Z,98864.52
2018-04-17T06:30:25.822Z,98867.91
2018-04-17T06:31:28.829Z,98867.38
2018-04-17T06:32:32.414Z,98869.72
2018-04-17T06:33:35.312Z,98869.90
2018-04-17T06:34:38.151Z,98870.01
2018-04-17T06:35:40.891Z,98868.71
2018-04-17T06:36:43.750Z,98875.23
2018-04-17T06:37:46.671Z,98871.91
2018-04-17T06:38:49.538Z,98877.78
2018-04-17T06:39:52.491Z,98876.98
2018-04-17T06:40:55.423Z,98879.31
2018-04-17T06:41:58.340Z,98875.98
2018-04-17T06:43:01.213Z,98882.39
2018-04-17T06:44:04.551Z,98887.08
2018-04-17T06:45:08.028Z,98881.17
2018-04-17T06:46:11.004Z,98885.48
2018-04-17T06:47:13.900Z,98883.22
2018-04-17T06:48:16.870Z,98883.83
2018-04-17T06:49:19.812Z,98881.31
2018-04-17T06:50:23.140Z,98890.02
2018-04-17T06:51:26.058Z,98890.09
2018-04-17T06:52:28.942Z,98889.14
2018-04-17T06:53:31.880Z,98889.27
2018-04-17T06:54:34.795Z,98896.91
2018-04-17T06:55:37.667Z,98896.26
2018-04-17T06:56:40.928Z,98898.42
2018-04-17T06:57:43.847Z,98895.70
2018-04-17T06:58:46.803Z,98900.16
2018-04-17T06:59:49.704Z,98898.68
2018-04-17T07:00:52.533Z,98900.31
2018-04-17T07:01:55.364Z,98902.06
2018-04-17T07:02:58.749Z,98898.69
2018-04-17T07:04:01.660Z,98909.78
2018-04-17T07:05:04.604Z,98903.06
2018-04-17T07:06:07.553Z,98903.66
2018-04-17T07:07:10.460Z,98901.86
2018-04-17T07:08:13.321Z,98899.59
2018-04-17T07:09:16.564Z,98896.28
2018-04-17T07:10:19.566Z,98902.17
2018-04-17T07:11:22.507Z,98894.73
2018-04-17T07:12:25.543Z,98896.06
2018-04-17T07:13:28.544Z,98892.58
2018-04-17T07:14:31.716Z,98889.77
2018-04-17T07:15:35.161Z,98894.63
2018-04-17T07:16:38.224Z,98892.31
2018-04-17T07:17:41.200Z,98887.82
2018-04-17T07:18:44.152Z,98884.95
2018-04-17T07:19:47.139Z,98887.42
2018-04-17T07:20:50.108Z,98890.47
2018-04-17T07:21:53.460Z,98885.89
2018-04-17T07:22:56.431Z,98884.63
2018-04-17T07:23:59.315Z,98882.45
2018-04-17T07:25:02.249Z,98889.49
2018-04-17T07:26:05.302Z,98886.50
2018-04-17T07:27:08.222Z,98884.46
2018-04-17T07:28:11.529Z,98887.56
2018-04-17T07:29:15.915Z,98887.80
2018-04-17T07:30:18.954Z,98883.01
2018-04-17T07:31:22.723Z,98886.63
2018-04-17T07:32:26.025Z,98892.17
2018-04-17T07:33:30.267Z,98887.26
2018-04-17T07:34:33.514Z,98884.11
2018-04-17T07:35:37.357Z,98890.96
2018-04-17T07:36:40.651Z,98889.70
2018-04-17T07:37:44.090Z,98884.44
2018-04-17T07:38:47.048Z,98889.13
2018-04-17T07:39:50.283Z,98888.42
2018-04-17T07:40:53.187Z,98884.56
2018-04-17T07:41:56.092Z,98877.81
2018-04-17T07:42:59.042Z,98883.64
2018-04-17T07:44:02.308Z,98876.76
2018-04-17T07:45:05.564Z,98885.67
2018-04-17T07:46:08.932Z,98882.55
2018-04-17T07:47:11.870Z,98885.73
2018-04-17T07:48:14.883Z,98887.75
2018-04-17T07:49:19.064Z,98890.99
2018-04-17T07:50:23.098Z,98883.37
2018-04-17T07:51:26.185Z,98891.44
2018-04-17T07:52:29.544Z,98888.71
2018-04-17T07:53:32.959Z,98895.30
2018-04-17T07:54:36.239Z,98898.38
2018-04-17T07:55:39.373Z,98896.26
2018-04-17T07:56:42.728Z,98898.03
2018-04-17T07:57:45.608Z,98892.25
2018-04-17T07:58:49.627Z,98899.23
2018-04-17T07:59:56.164Z,98899.23
2018-04-17T08:00:59.521Z,98898.92
2018-04-17T08:02:02.485Z,98903.42
2018-04-17T08:03:05.514Z,98904.13
2018-04-17T08:04:08.401Z,98901.36
2018-04-17T08:05:12.293Z,98905.06
2018-04-17T08:06:16.211Z,98900.71
2018-04-17T08:07:19.240Z,98903.06
2018-04-17T08:08:22.089Z,98897.42
2018-04-17T08:09:25.086Z,98906.59
2018-04-17T08:10:28.980Z,98906.42
2018-04-17T08:11:33.081Z,98909.27
2018-04-17T08:12:36.179Z,98912.11
2018-04-17T08:13:40.468Z,98910.14
2018-04-17T08:14:44.175Z,98916.08
2018-04-17T08:15:47.377Z,98911.75
2018-04-17T08:16:52.009Z,98912.22
2018-04-17T08:17:55.651Z,98916.02
2018-04-17T08:19:03.586Z,98915.09
2018-04-17T08:20:06.688Z,98914.62
2018-04-17T08:21:09.842Z,98917.59
2018-04-17T08:22:12.722Z,98916.10
2018-04-17T08:23:15.891Z,98918.36
2018-04-17T08:24:19.707Z,98912.91
2018-04-17T08:25:22.742Z,98909.66
2018-04-17T08:26:25.741Z,98915.34
2018-04-17T08:27:28.662Z,98918.99
2018-04-17T08:28:31.692Z,98918.58
2018-04-17T08:29:35.228Z,98920.31
2018-04-17T08:30:38.560Z,98919.69
2018-04-17T08:31:41.727Z,98917.72
2018-04-17T08:32:44.675Z,98922.48
2018-04-17T08:33:48.989Z,98915.53
2018-04-17T08:34:53.499Z,98921.89
2018-04-17T08:35:57.063Z,98921.09
2018-04-17T08:37:00.468Z,98926.86
2018-04-17T08:38:03.363Z,98924.08
2018-04-17T08:39:06.217Z,98932.65
2018-04-17T08:40:09.647Z,98942.55
2018-04-17T08:41:12.820Z,98935.08
2018-04-17T08:42:16.253Z,98929.91
2018-04-17T08:43:19.534Z,98937.54
2018-04-17T08:44:23.099Z,98932.08
2018-04-17T08:45:28.370Z,98935.81
2018-04-17T08:46:33.694Z,98933.23
2018-04-17T08:47:38.648Z,98938.49
2018-04-17T08:48:46.022Z,98937.14
2018-04-17T08:49:50.448Z,98934.50
2018-04-17T08:50:55.658Z,98941.41
2018-04-17T08:52:01.842Z,98936.23
2018-04-17T08:53:05.004Z,98936.43
2018-04-17T08:54:09.870Z,98946.17
2018-04-17T08:55:15.814Z,98941.47
2018-04-17T08:56:20.475Z,98940.88
2018-04-17T08:57:23.541Z,98944.20
2018-04-17T08:58:26.525Z,98941.70
2018-04-17T08:59:29.483Z,98941.95
2018-04-17T09:00:32.312Z,98941.87
2018-04-17T09:01:35.727Z,98941.72
2018-04-17T09:02:38.710Z,98936.17
2018-04-17T09:03:41.653Z,98942.33
2018-04-17T09:04:44.565Z,98939.30
2018-04-17T09:05:47.528Z,98936.75
2018-04-17T09:06:50.487Z,98932.50
2018-04-17T09:07:54.119Z,98945.94
2018-04-17T09:08:57.126Z,98939.63
2018-04-17T09:10:00.428Z,98947.48
2018-04-17T09:11:03.441Z,98941.02
2018-04-17T09:12:06.622Z,98939.95
2018-04-17T09:13:10.622Z,98940.98
2018-04-17T09:14:13.887Z,98944.02
2018-04-17T09:15:16.855Z,98945.25
2018-04-17T09:16:21.038Z,98940.52
2018-04-17T09:17:23.918Z,98934.63
2018-04-17T09:18:26.926Z,98933.08
2018-04-17T09:19:31.720Z,98939.38
2018-04-17T09:20:35.012Z,98943.45
2018-04-17T09:21:37.854Z,98936.41
2018-04-17T09:22:40.657Z,98937.80
2018-04-17T09:23:43.574Z,98934.66
2018-04-17T09:24:46.471Z,98945.72
2018-04-17T09:25:49.431Z,98944.11
2018-04-17T09:26:52.306Z,98946.59
2018-04-17T09:27:55.238Z,98944.69
2018-04-17T09:28:58.187Z,98937.67
2018-04-17T09:30:01.166Z,98933.56
2018-04-17T09:31:04.200Z,98937.66
2018-04-17T09:32:07.779Z,98936.86
2018-04-17T09:33:10.687Z,98930.31
2018-04-17T09:34:15.638Z,98929.16
2018-04-17T09:35:18.627Z,98928.69
2018-04-17T09:36:21.572Z,98932.63
2018-04-17T09:37:24.497Z,98928.42
2018-04-17T09:38:28.438Z,98937.48
2018-04-17T09:39:31.265Z,98940.79
2018-04-17T09:40:34.112Z,98930.95
2018-04-17T09:41:37.949Z,98933.27
2018-04-17T09:42:40.955Z,98928.88
2018-04-17T09:43:43.922Z,98927.97
2018-04-17T09:44:47.628Z,98925.20
2018-04-17T09:45:50.503Z,98924.05
2018-04-17T09:46:53.535Z,98930.48
2018-04-17T09:47:57.761Z,98925.87
2018-04-17T09:49:00.933Z,98924.17
2018-04-17T09:50:04.537Z,98925.22
2018-04-17T09:51:09.908Z,98929.58
2018-04-17T09:52:13.332Z,98929.57
2018-04-17T09:53:16.287Z,98924.41
2018-04-17T09:54:20.074Z,98932.70
2018-04-17T09:55:23.059Z,98934.30
2018-04-17T09:56:26.035Z,98930.48
2018-04-17T09:57:29.861Z,98940.58
2018-04-17T09:58:36.119Z,98934.39
2018-04-17T09:59:39.048Z,98926.59
2018-04-17T10:00:46.002Z,98927.77
2018-04-17T10:01:49.507Z,98932.34
2018-04-17T10:02:52.994Z,98932.92
2018-04-17T10:03:57.035Z,98928.11
2018-04-17T10:05:01.831Z,98928.22
2018-04-17T10:06:05.622Z,98928.33
2018-04-17T10:07:08.487Z,98930.96
2018-04-17T10:08:11.346Z,98928.68
2018-04-17T10:09:15.510Z,98930.84
2018-04-17T10:10:18.371Z,98929.95
2018-04-17T10:11:21.093Z,98931.05
2018-04-17T10:12:24.552Z,98933.52
2018-04-17T10:13:28.491Z,98933.31
2018-04-17T10:14:31.648Z,98933.77
2018-04-17T10:15:35.109Z,98928.41
2018-04-17T10:16:37.975Z,98927.37
2018-04-17T10:17:40.849Z,98923.17
2018-04-17T10:18:43.787Z,98922.80
2018-04-17T10:19:47.043Z,98924.11
2018-04-17T10:20:50.455Z,98922.28
2018-04-17T10:21:53.677Z,98920.02
2018-04-17T10:22:57.983Z,98923.55
2018-04-17T10:24:01.644Z,98920.89
2018-04-17T10:25:04.504Z,98926.50
2018-04-17T10:26:08.094Z,98921.78
2018-04-17T10:27:12.917Z,98912.21
2018-04-17T10:28:16.538Z,98917.98
2018-04-17T10:29:19.808Z,98917.69
2018-04-17T10:30:22.825Z,98920.37
2018-04-17T10:31:25.616Z,98924.23
2018-04-17T10:32:29.241Z,98923.28
2018-04-17T10:33:32.483Z,98921.20
2018-04-17T10:34:35.781Z,98918.22
2018-04-17T10:35:38.775Z,98914.45
2018-04-17T10:36:42.797Z,98913.27
2018-04-17T10:37:45.753Z,98913.94
2018-04-17T10:38:48.693Z,98913.89
2018-04-17T10:39:51.937Z,98916.19
2018-04-17T10:40:56.165Z,98906.54
2018-04-17T10:41:59.040Z,98909.89
2018-04-17T10:43:01.963Z,98912.28
2018-04-17T10:44:04.813Z,98906.65
2018-04-17T10:45:07.710Z,98907.52
2018-04-17T10:46:11.205Z,98901.64
2018-04-17T10:47:16.004Z,98898.09
2018-04-17T10:48:18.799Z,98901.90
2018-04-17T10:49:22.237Z,98891.86
2018-04-17T10:50:25.115Z,98898.16
2018-04-17T10:51:28.136Z,98900.80
2018-04-17T10:52:31.691Z,98901.83
2018-04-17T10:53:34.871Z,98896.20
2018-04-17T10:54:38.056Z,98897.63
2018-04-17T10:55:40.988Z,98897.40
2018-04-17T10:56:44.069Z,98896.19
2018-04-17T10:57:47.108Z,98901.32
2018-04-17T10:58:50.414Z,98903.36
2018-04-17T10:59:55.044Z,98895.70
2018-04-17T11:00:57.959Z,98894.72
2018-04-17T11:02:01.733Z,98899.27
2018-04-17T11:03:04.670Z,98898.73
2018-04-17T11:04:08.340Z,98895.97
2018-04-17T11:05:11.247Z,98892.11
2018-04-17T11:06:15.332Z,98898.27
2018-04-17T11:07:18.232Z,98900.28
2018-04-17T11:08:21.070Z,98889.42
2018-04-17T11:09:24.004Z,98900.61
2018-04-17T11:10:26.993Z,98889.91
2018-04-17T11:11:29.992Z,98892.50
2018-04-17T11:12:33.264Z,98887.67
2018-04-17T11:13:37.234Z,98894.50
2018-04-17T11:14:40.084Z,98890.98
2018-04-17T11:15:42.969Z,98890.02
2018-04-17T11:16:46.110Z,98887.45
2018-04-17T11:17:49.151Z,98889.31
2018-04-17T11:18:52.782Z,98885.80
2018-04-17T11:19:55.734Z,98887.64
2018-04-17T11:20:58.660Z,98892.14
2018-04-17T11:22:01.556Z,98890.14
2018-04-17T11:23:04.479Z,98888.34
2018-04-17T11:24:07.375Z,98885.33
2018-04-17T11:25:10.833Z,98889.41
2018-04-17T11:26:13.763Z,98885.58
2018-04-17T11:27:16.781Z,98889.77
2018-04-17T11:28:19.712Z,98884.36
2018-04-17T11:29:22.611Z,98885.19
2018-04-17T11:30:25.500Z,98887.92
2018-04-17T11:31:28.476Z,98883.75
2018-04-17T11:32:31.354Z,98884.65
2018-04-17T11:33:34.388Z,98892.41
2018-04-17T11:34:38.170Z,98890.98
2018-04-17T11:35:42.141Z,98890.33
2018-04-17T11:36:45.218Z,98887.14
2018-04-17T11:37:48.466Z,98890.56
2018-04-17T11:38:51.499Z,98881.28
2018-04-17T11:39:54.478Z,98890.78
2018-04-17T11:40:57.407Z,98886.25
2018-04-17T11:42:00.271Z,98883.77
2018-04-17T11:43:03.543Z,98895.52
2018-04-17T11:44:07.087Z,98886.16
2018-04-17T11:45:10.069Z,98889.94
2018-04-17T11:46:12.899Z,98891.34
2018-04-17T11:47:15.859Z,98889.38
2018-04-17T11:48:18.754Z,98885.14
2018-04-17T11:49:22.709Z,98885.97
2018-04-17T11:50:26.353Z,98876.75
2018-04-17T11:51:29.203Z,98879.66
2018-04-17T11:52:33.069Z,98880.62
2018-04-17T11:53:36.088Z,98891.52
2018-04-17T11:54:39.098Z,98889.56
2018-04-17T11:55:42.000Z,98888.43
2018-04-17T11:56:45.365Z,98886.52
2018-04-17T11:57:49.739Z,98883.17
2018-04-17T11:58:52.653Z,98883.50
2018-04-17T11:59:55.684Z,98887.09
2018-04-17T12:00:58.677Z,98885.43
2018-04-17T12:02:01.590Z,98878.80
2018-04-17T12:03:05.024Z,98888.02
2018-04-17T12:04:07.966Z,98886.41
2018-04-17T12:05:10.864Z,98886.42
2018-04-17T12:06:13.694Z,98887.70
2018-04-17T12:07:16.496Z,98886.79
2018-04-17T12:08:19.320Z,98882.89
2018-04-17T12:09:22.728Z,98887.73
2018-04-17T12:10:26.138Z,98889.59
2018-04-17T12:11:29.048Z,98878.74
2018-04-17T12:12:31.902Z,98885.58
2018-04-17T12:13:34.755Z,98879.89
2018-04-17T12:14:39.094Z,98881.73
2018-04-17T12:15:42.503Z,98888.49
2018-04-17T12:16:45.270Z,98880.28
2018-04-17T12:17:48.091Z,98883.70
2018-04-17T12:18:51.788Z,98878.61
2018-04-17T12:19:55.107Z,98887.35
2018-04-17T12:20:58.050Z,98895.70